sensor_id;sensor_type;location;lat;lon;timestamp;pressure;altitude;pressure_sealevel;temperature;humidity
30021;BME280;16861;52.294;7.760;2023-06-26T00:00:02;99564.94;;;26.93;43.45
30021;BME280;16861;52.294;7.760;2023-06-26T00:02:30;99572.19;;;26.93;43.09
30021;BME280;16861;52.294;7.760;2023-06-26T00:04:59;99566.97;;;26.91;43.65
30021;BME280;16861;52.294;7.760;2023-06-26T00:07:29;99569.88;;;26.90;43.26
30021;BME280;16861;52.294;7.760;2023-06-26T00:09:57;99562.19;;;26.87;43.24
30021;BME280;16861;52.294;7.760;2023-06-26T00:12:24;99564.25;;;26.85;43.43
30021;BME280;16861;52.294;7.760;2023-06-26T00:14:51;99558.22;;;26.83;43.51
30021;BME280;16861;52.294;7.760;2023-06-26T00:17:18;99559.25;;;26.82;43.56
30021;BME280;16861;52.294;7.760;2023-06-26T00:19:45;99550.72;;;26.78;43.67
30021;BME280;16861;52.294;7.760;2023-06-26T00:22:11;99548.41;;;26.75;44.36
30021;BME280;16861;52.294;7.760;2023-06-26T00:24:38;99551.31;;;26.73;44.04
30021;BME280;16861;52.294;7.760;2023-06-26T00:27:04;99548.16;;;26.70;43.95
30021;BME280;16861;52.294;7.760;2023-06-26T00:29:31;99550.25;;;26.67;43.82
30021;BME280;16861;52.294;7.760;2023-06-26T00:31:58;99547.09;;;26.64;44.16
30021;BME280;16861;52.294;7.760;2023-06-26T00:34:24;99543.97;;;26.60;44.52
30021;BME280;16861;52.294;7.760;2023-06-26T00:36:51;99537.72;;;26.60;44.43
30021;BME280;16861;52.294;7.760;2023-06-26T00:39:17;99537.94;;;26.58;44.67
30021;BME280;16861;52.294;7.760;2023-06-26T00:41:44;99537.28;;;26.56;44.30
30021;BME280;16861;52.294;7.760;2023-06-26T00:44:10;99526.88;;;26.53;44.52
30021;BME280;16861;52.294;7.760;2023-06-26T00:46:37;99537.06;;;26.51;44.18
30021;BME280;16861;52.294;7.760;2023-06-26T00:49:03;99531.88;;;26.49;44.53
30021;BME280;16861;52.294;7.760;2023-06-26T00:51:30;99533.72;;;26.49;44.65
30021;BME280;16861;52.294;7.760;2023-06-26T00:53:57;99530.59;;;26.45;44.53
30021;BME280;16861;52.294;7.760;2023-06-26T00:56:24;99529.13;;;26.43;44.49
30021;BME280;16861;52.294;7.760;2023-06-26T00:58:50;99520.38;;;26.40;44.89
30021;BME280;16861;52.294;7.760;2023-06-26T01:01:17;99522.44;;;26.38;44.84
30021;BME280;16861;52.294;7.760;2023-06-26T01:03:44;99523.50;;;26.37;44.87
30021;BME280;16861;52.294;7.760;2023-06-26T01:06:13;99518.47;;;26.34;45.29
30021;BME280;16861;52.294;7.760;2023-06-26T01:08:41;99514.13;;;26.33;45.01
30021;BME280;16861;52.294;7.760;2023-06-26T01:11:09;99502.69;;;26.31;45.30
30021;BME280;16861;52.294;7.760;2023-06-26T01:13:36;99502.06;;;26.29;45.14
30021;BME280;16861;52.294;7.760;2023-06-26T01:16:04;99499.75;;;26.26;45.36
30021;BME280;16861;52.294;7.760;2023-06-26T01:18:32;99499.09;;;26.24;45.53
30021;BME280;16861;52.294;7.760;2023-06-26T01:20:59;99494.94;;;26.21;45.71
30021;BME280;16861;52.294;7.760;2023-06-26T01:23:37;99485.75;;;26.15;46.09
30021;BME280;16861;52.294;7.760;2023-06-26T01:28:35;99487.78;;;26.13;45.89
30021;BME280;16861;52.294;7.760;2023-06-26T01:31:05;99483.63;;;26.11;45.88
30021;BME280;16861;52.294;7.760;2023-06-26T01:33:32;99473.22;;;26.08;45.83
30021;BME280;16861;52.294;7.760;2023-06-26T01:35:59;99475.31;;;26.06;45.96
30021;BME280;16861;52.294;7.760;2023-06-26T01:38:25;99464.09;;;26.02;46.11
30021;BME280;16861;52.294;7.760;2023-06-26T01:40:53;99469.00;;;25.98;46.21
30021;BME280;16861;52.294;7.760;2023-06-26T01:43:27;99467.13;;;25.92;45.84
30021;BME280;16861;52.294;7.760;2023-06-26T01:46:01;99462.09;;;25.89;46.24
30021;BME280;16861;52.294;7.760;2023-06-26T01:48:34;99466.03;;;25.86;46.10
30021;BME280;16861;52.294;7.760;2023-06-26T01:51:05;99452.94;;;25.83;46.46
30021;BME280;16861;52.294;7.760;2023-06-26T01:53:36;99465.13;;;25.79;46.09
30021;BME280;16861;52.294;7.760;2023-06-26T01:56:13;99456.59;;;25.75;46.14
30021;BME280;16861;52.294;7.760;2023-06-26T01:58:45;99455.34;;;25.71;46.14
30021;BME280;16861;52.294;7.760;2023-06-26T02:01:12;99455.34;;;25.71;45.68
30021;BME280;16861;52.294;7.760;2023-06-26T02:03:39;99450.13;;;25.70;45.64
30021;BME280;16861;52.294;7.760;2023-06-26T02:06:06;99449.50;;;25.68;45.58
30021;BME280;16861;52.294;7.760;2023-06-26T02:08:32;99446.16;;;25.66;45.76
30021;BME280;16861;52.294;7.760;2023-06-26T02:10:59;99443.47;;;25.66;45.32
30021;BME280;16861;52.294;7.760;2023-06-26T02:13:25;99442.66;;;25.65;45.06
30021;BME280;16861;52.294;7.760;2023-06-26T02:15:52;99437.06;;;25.67;45.05
30021;BME280;16861;52.294;7.760;2023-06-26T02:18:18;99438.72;;;25.68;45.21
30021;BME280;16861;52.294;7.760;2023-06-26T02:20:48;99436.66;;;25.70;45.16
30021;BME280;16861;52.294;7.760;2023-06-26T02:23:14;99437.69;;;25.69;45.13
30021;BME280;16861;52.294;7.760;2023-06-26T02:25:41;99432.94;;;25.71;45.36
30021;BME280;16861;52.294;7.760;2023-06-26T02:28:07;99431.06;;;25.71;45.25
30021;BME280;16861;52.294;7.760;2023-06-26T02:30:34;99435.44;;;25.72;45.02
30021;BME280;16861;52.294;7.760;2023-06-26T02:33:00;99438.97;;;25.73;44.68
30021;BME280;16861;52.294;7.760;2023-06-26T02:35:27;99439.16;;;25.71;44.90
30021;BME280;16861;52.294;7.760;2023-06-26T02:37:53;99441.03;;;25.71;45.06
30021;BME280;16861;52.294;7.760;2023-06-26T02:40:20;99431.25;;;25.70;44.73
30021;BME280;16861;52.294;7.760;2023-06-26T02:42:46;99439.34;;;25.70;44.83
30021;BME280;16861;52.294;7.760;2023-06-26T02:45:13;99428.56;;;25.70;44.60
30021;BME280;16861;52.294;7.760;2023-06-26T02:47:39;99431.44;;;25.68;44.95
30021;BME280;16861;52.294;7.760;2023-06-26T02:50:07;99438.72;;;25.68;45.07
30021;BME280;16861;52.294;7.760;2023-06-26T02:52:33;99425.44;;;25.66;44.49
30021;BME280;16861;52.294;7.760;2023-06-26T02:55:00;99435.56;;;25.64;44.74
30021;BME280;16861;52.294;7.760;2023-06-26T02:57:26;99433.91;;;25.63;44.83
30021;BME280;16861;52.294;7.760;2023-06-26T02:59:53;99427.88;;;25.61;44.57
30021;BME280;16861;52.294;7.760;2023-06-26T03:02:19;99428.09;;;25.59;44.83
30021;BME280;16861;52.294;7.760;2023-06-26T03:04:46;99426.59;;;25.57;44.52
30021;BME280;16861;52.294;7.760;2023-06-26T03:07:12;99430.31;;;25.56;44.54
30021;BME280;16861;52.294;7.760;2023-06-26T03:09:39;99429.66;;;25.54;44.53
30021;BME280;16861;52.294;7.760;2023-06-26T03:12:06;99431.91;;;25.50;44.57
30021;BME280;16861;52.294;7.760;2023-06-26T03:14:32;99438.72;;;25.46;44.67
30021;BME280;16861;52.294;7.760;2023-06-26T03:16:59;99429.16;;;25.43;44.42
30021;BME280;16861;52.294;7.760;2023-06-26T03:19:29;99434.09;;;25.40;44.72
30021;BME280;16861;52.294;7.760;2023-06-26T03:21:56;99443.19;;;25.38;45.08
30021;BME280;16861;52.294;7.760;2023-06-26T03:24:23;99428.25;;;25.36;44.60
30021;BME280;16861;52.294;7.760;2023-06-26T03:26:49;99433.84;;;25.34;44.90
30021;BME280;16861;52.294;7.760;2023-06-26T03:29:16;99434.03;;;25.33;44.76
30021;BME280;16861;52.294;7.760;2023-06-26T03:31:42;99430.69;;;25.31;44.93
30021;BME280;16861;52.294;7.760;2023-06-26T03:34:09;99429.03;;;25.30;44.96
30021;BME280;16861;52.294;7.760;2023-06-26T03:36:35;99433.59;;;25.29;44.68
30021;BME280;16861;52.294;7.760;2023-06-26T03:39:02;99421.16;;;25.28;44.83
30021;BME280;16861;52.294;7.760;2023-06-26T03:41:30;99414.09;;;25.27;44.94
30021;BME280;16861;52.294;7.760;2023-06-26T03:43:56;99414.28;;;25.26;44.72
30021;BME280;16861;52.294;7.760;2023-06-26T03:49:11;99418.81;;;25.25;45.11
30021;BME280;16861;52.294;7.760;2023-06-26T03:51:37;99418.19;;;25.23;45.04
30021;BME280;16861;52.294;7.760;2023-06-26T03:54:04;99423.59;;;25.23;45.19
30021;BME280;16861;52.294;7.760;2023-06-26T03:56:30;99415.69;;;25.21;45.11
30021;BME280;16861;52.294;7.760;2023-06-26T03:58:56;99422.94;;;25.21;45.14
30021;BME280;16861;52.294;7.760;2023-06-26T04:01:23;99426.66;;;25.20;45.35
30021;BME280;16861;52.294;7.760;2023-06-26T04:03:49;99431.38;;;25.18;45.46
30021;BME280;16861;52.294;7.760;2023-06-26T04:06:16;99440.50;;;25.17;45.23
30021;BME280;16861;52.294;7.760;2023-06-26T04:08:42;99429.09;;;25.15;45.79
30021;BME280;16861;52.294;7.760;2023-06-26T04:11:09;99423.06;;;25.13;45.61
30021;BME280;16861;52.294;7.760;2023-06-26T04:13:35;99426.13;;;25.09;45.55
30021;BME280;16861;52.294;7.760;2023-06-26T04:16:04;99430.03;;;25.07;45.52
30021;BME280;16861;52.294;7.760;2023-06-26T04:18:32;99431.91;;;25.06;45.51
30021;BME280;16861;52.294;7.760;2023-06-26T04:21:12;99435.53;;;24.98;46.46
30021;BME280;16861;52.294;7.760;2023-06-26T04:23:40;99429.97;;;25.00;45.83
30021;BME280;16861;52.294;7.760;2023-06-26T04:26:07;99438.22;;;24.98;45.94
30021;BME280;16861;52.294;7.760;2023-06-26T04:28:35;99439.44;;;24.96;46.08
30021;BME280;16861;52.294;7.760;2023-06-26T04:31:02;99443.16;;;24.95;46.17
30021;BME280;16861;52.294;7.760;2023-06-26T04:33:29;99434.47;;;24.93;46.09
30021;BME280;16861;52.294;7.760;2023-06-26T04:35:56;99442.72;;;24.91;46.18
30021;BME280;16861;52.294;7.760;2023-06-26T04:38:23;99445.41;;;24.91;46.47
30021;BME280;16861;52.294;7.760;2023-06-26T04:40:49;99445.41;;;24.91;46.38
30021;BME280;16861;52.294;7.760;2023-06-26T04:43:15;99447.25;;;24.91;46.34
30021;BME280;16861;52.294;7.760;2023-06-26T04:45:42;99441.06;;;24.90;46.80
30021;BME280;16861;52.294;7.760;2023-06-26T04:48:09;99445.59;;;24.90;46.66
30021;BME280;16861;52.294;7.760;2023-06-26T04:50:35;99450.13;;;24.89;47.05
30021;BME280;16861;52.294;7.760;2023-06-26T04:53:02;99449.31;;;24.89;47.07
30021;BME280;16861;52.294;7.760;2023-06-26T04:55:29;99452.00;;;24.89;46.99
30021;BME280;16861;52.294;7.760;2023-06-26T04:57:56;99443.94;;;24.89;47.31
30021;BME280;16861;52.294;7.760;2023-06-26T05:00:23;99449.13;;;24.90;47.07
30021;BME280;16861;52.294;7.760;2023-06-26T05:02:51;99446.22;;;24.92;47.05
30021;BME280;16861;52.294;7.760;2023-06-26T05:05:27;99447.91;;;24.93;47.45
30021;BME280;16861;52.294;7.760;2023-06-26T05:07:55;99452.28;;;24.94;47.34
30021;BME280;16861;52.294;7.760;2023-06-26T05:10:22;99443.16;;;24.95;47.54
30021;BME280;16861;52.294;7.760;2023-06-26T05:12:48;99445.69;;;24.96;47.08
30021;BME280;16861;52.294;7.760;2023-06-26T05:15:15;99447.34;;;24.97;47.59
30021;BME280;16861;52.294;7.760;2023-06-26T05:17:41;99448.81;;;25.00;47.87
30021;BME280;16861;52.294;7.760;2023-06-26T05:20:08;99449.47;;;25.02;47.58
30021;BME280;16861;52.294;7.760;2023-06-26T05:22:37;99443.06;;;25.03;47.95
30021;BME280;16861;52.294;7.760;2023-06-26T05:25:06;99442.03;;;25.04;47.87
30021;BME280;16861;52.294;7.760;2023-06-26T05:27:39;99437.28;;;25.06;47.91
30021;BME280;16861;52.294;7.760;2023-06-26T05:30:06;99430.69;;;25.09;47.89
30021;BME280;16861;52.294;7.760;2023-06-26T05:32:34;99430.50;;;25.10;48.18
30021;BME280;16861;52.294;7.760;2023-06-26T05:35:02;99429.09;;;25.15;47.88
30021;BME280;16861;52.294;7.760;2023-06-26T05:37:31;99427.22;;;25.15;48.39
30021;BME280;16861;52.294;7.760;2023-06-26T05:39:57;99432.41;;;25.17;48.25
30021;BME280;16861;52.294;7.760;2023-06-26T05:42:24;99434.75;;;25.20;48.52
30021;BME280;16861;52.294;7.760;2023-06-26T05:44:50;99437.06;;;25.23;48.18
30021;BME280;16861;52.294;7.760;2023-06-26T05:47:17;99451.16;;;25.25;48.32
30021;BME280;16861;52.294;7.760;2023-06-26T05:49:43;99441.84;;;25.28;48.13
30021;BME280;16861;52.294;7.760;2023-06-26T05:52:10;99446.19;;;25.29;48.35
30021;BME280;16861;52.294;7.760;2023-06-26T05:54:37;99453.28;;;25.30;48.67
30021;BME280;16861;52.294;7.760;2023-06-26T05:57:04;99453.28;;;25.30;48.47
30021;BME280;16861;52.294;7.760;2023-06-26T05:59:32;99460.53;;;25.29;48.61
30021;BME280;16861;52.294;7.760;2023-06-26T06:01:58;99466.09;;;25.28;48.94
30021;BME280;16861;52.294;7.760;2023-06-26T06:04:25;99467.97;;;25.27;48.64
30021;BME280;16861;52.294;7.760;2023-06-26T06:06:51;99466.28;;;25.26;48.99
30021;BME280;16861;52.294;7.760;2023-06-26T06:09:18;99464.44;;;25.27;49.01
30021;BME280;16861;52.294;7.760;2023-06-26T06:11:44;99468.97;;;25.26;49.51
30021;BME280;16861;52.294;7.760;2023-06-26T06:14:11;99470.84;;;25.26;49.36
30021;BME280;16861;52.294;7.760;2023-06-26T06:16:37;99469.81;;;25.27;49.87
30021;BME280;16861;52.294;7.760;2023-06-26T06:19:04;99476.69;;;25.29;49.57
30021;BME280;16861;52.294;7.760;2023-06-26T06:21:33;99484.56;;;25.31;49.84
30021;BME280;16861;52.294;7.760;2023-06-26T06:23:59;99486.06;;;25.33;49.58
30021;BME280;16861;52.294;7.760;2023-06-26T06:26:27;99487.53;;;25.36;49.94
30021;BME280;16861;52.294;7.760;2023-06-26T06:28:53;99485.28;;;25.40;49.85
30021;BME280;16861;52.294;7.760;2023-06-26T06:31:20;99488.44;;;25.43;49.90
30021;BME280;16861;52.294;7.760;2023-06-26T06:33:46;99494.25;;;25.47;49.99
30021;BME280;16861;52.294;7.760;2023-06-26T06:36:13;99503.25;;;25.54;50.14
30021;BME280;16861;52.294;7.760;2023-06-26T06:38:43;99500.00;;;25.59;50.34
30021;BME280;16861;52.294;7.760;2023-06-26T06:41:10;99496.56;;;25.65;50.34
30021;BME280;16861;52.294;7.760;2023-06-26T06:43:36;99510.28;;;25.70;50.07
30021;BME280;16861;52.294;7.760;2023-06-26T06:46:03;99506.97;;;25.75;50.08
30021;BME280;16861;52.294;7.760;2023-06-26T06:48:31;99514.69;;;25.78;50.23
30021;BME280;16861;52.294;7.760;2023-06-26T06:50:57;99512.47;;;25.82;50.03
30021;BME280;16861;52.294;7.760;2023-06-26T06:53:24;99522.66;;;25.86;50.59
30021;BME280;16861;52.294;7.760;2023-06-26T06:55:50;99528.09;;;25.93;50.40
30021;BME280;16861;52.294;7.760;2023-06-26T06:58:17;99525.47;;;26.00;50.44
30021;BME280;16861;52.294;7.760;2023-06-26T07:00:45;99526.34;;;26.07;50.38
30021;BME280;16861;52.294;7.760;2023-06-26T07:03:12;99537.00;;;26.15;49.85
30021;BME280;16861;52.294;7.760;2023-06-26T07:05:38;99546.38;;;26.20;50.00
30021;BME280;16861;52.294;7.760;2023-06-26T07:08:05;99564.22;;;26.21;49.59
30021;BME280;16861;52.294;7.760;2023-06-26T07:10:31;99567.31;;;26.18;50.05
30021;BME280;16861;52.294;7.760;2023-06-26T07:12:57;99572.19;;;26.07;49.91
30021;BME280;16861;52.294;7.760;2023-06-26T07:15:24;99584.91;;;25.92;50.22
30021;BME280;16861;52.294;7.760;2023-06-26T07:17:52;99587.59;;;25.70;50.32
30021;BME280;16861;52.294;7.760;2023-06-26T07:20:18;99594.63;;;25.49;51.05
30021;BME280;16861;52.294;7.760;2023-06-26T07:22:45;99598.09;;;25.28;51.75
30021;BME280;16861;52.294;7.760;2023-06-26T07:25:12;99604.53;;;25.11;52.21
30021;BME280;16861;52.294;7.760;2023-06-26T07:27:39;99602.69;;;24.97;53.08
30021;BME280;16861;52.294;7.760;2023-06-26T07:30:07;99607.50;;;24.87;53.25
30021;BME280;16861;52.294;7.760;2023-06-26T07:32:37;99605.88;;;24.77;53.62
30021;BME280;16861;52.294;7.760;2023-06-26T07:35:04;99613.00;;;24.70;53.88
30021;BME280;16861;52.294;7.760;2023-06-26T07:37:31;99608.84;;;24.67;53.61
30021;BME280;16861;52.294;7.760;2023-06-26T07:39:57;99614.78;;;24.63;53.76
30021;BME280;16861;52.294;7.760;2023-06-26T07:42:24;99629.28;;;24.62;54.18
30021;BME280;16861;52.294;7.760;2023-06-26T07:44:50;99616.63;;;24.62;53.99
30021;BME280;16861;52.294;7.760;2023-06-26T07:47:16;99624.16;;;24.67;54.33
30021;BME280;16861;52.294;7.760;2023-06-26T07:49:43;99608.47;;;24.70;54.45
30021;BME280;16861;52.294;7.760;2023-06-26T07:52:09;99601.53;;;24.76;54.08
30021;BME280;16861;52.294;7.760;2023-06-26T07:54:41;99617.09;;;24.81;53.91
30021;BME280;16861;52.294;7.760;2023-06-26T07:57:07;99610.38;;;24.85;54.20
30021;BME280;16861;52.294;7.760;2023-06-26T07:59:35;99609.16;;;24.88;54.29
30021;BME280;16861;52.294;7.760;2023-06-26T08:02:01;99609.47;;;24.93;54.47
30021;BME280;16861;52.294;7.760;2023-06-26T08:04:29;99608.69;;;24.99;54.05
30021;BME280;16861;52.294;7.760;2023-06-26T08:07:00;99614.34;;;25.04;54.25
30021;BME280;16861;52.294;7.760;2023-06-26T08:09:29;99611.94;;;25.09;54.52
30021;BME280;16861;52.294;7.760;2023-06-26T08:11:56;99605.81;;;25.16;54.43
30021;BME280;16861;52.294;7.760;2023-06-26T08:14:23;99607.56;;;25.23;54.91
30021;BME280;16861;52.294;7.760;2023-06-26T08:16:50;99606.84;;;25.30;54.25
30021;BME280;16861;52.294;7.760;2023-06-26T08:19:17;99612.13;;;25.38;54.14
30021;BME280;16861;52.294;7.760;2023-06-26T08:21:45;99620.06;;;25.46;54.27
30021;BME280;16861;52.294;7.760;2023-06-26T08:24:12;99618.28;;;25.54;54.25
30021;BME280;16861;52.294;7.760;2023-06-26T08:26:39;99624.22;;;25.64;54.11
30021;BME280;16861;52.294;7.760;2023-06-26T08:29:06;99632.22;;;25.72;53.91
30021;BME280;16861;52.294;7.760;2023-06-26T08:31:39;99640.84;;;25.83;53.23
30021;BME280;16861;52.294;7.760;2023-06-26T08:34:07;99637.19;;;25.91;53.27
30021;BME280;16861;52.294;7.760;2023-06-26T08:36:34;99637.06;;;25.99;53.08
30021;BME280;16861;52.294;7.760;2023-06-26T08:39:00;99649.38;;;26.08;53.41
30021;BME280;16861;52.294;7.760;2023-06-26T08:41:27;99654.47;;;26.18;52.84
30021;BME280;16861;52.294;7.760;2023-06-26T08:43:53;99655.19;;;26.27;52.14
30021;BME280;16861;52.294;7.760;2023-06-26T08:46:20;99652.53;;;26.34;51.93
30021;BME280;16861;52.294;7.760;2023-06-26T08:49:00;99664.00;;;26.36;52.07
30021;BME280;16861;52.294;7.760;2023-06-26T08:51:28;99657.63;;;26.44;51.86
30021;BME280;16861;52.294;7.760;2023-06-26T08:53:59;99671.16;;;26.50;51.81
30021;BME280;16861;52.294;7.760;2023-06-26T08:56:36;99667.91;;;26.55;51.85
30021;BME280;16861;52.294;7.760;2023-06-26T08:59:04;99677.53;;;26.64;50.90
30021;BME280;16861;52.294;7.760;2023-06-26T09:01:32;99684.59;;;26.65;50.16
30021;BME280;16861;52.294;7.760;2023-06-26T09:03:58;99680.22;;;26.64;50.60
30021;BME280;16861;52.294;7.760;2023-06-26T09:06:25;99689.97;;;26.65;50.19
30021;BME280;16861;52.294;7.760;2023-06-26T09:08:52;99691.25;;;26.70;50.19
30021;BME280;16861;52.294;7.760;2023-06-26T09:11:18;99683.63;;;26.73;49.67
30021;BME280;16861;52.294;7.760;2023-06-26T09:13:45;99689.25;;;26.78;49.59
30021;BME280;16861;52.294;7.760;2023-06-26T09:16:13;99684.94;;;26.84;49.86
30021;BME280;16861;52.294;7.760;2023-06-26T09:18:41;99693.91;;;26.91;49.55
30021;BME280;16861;52.294;7.760;2023-06-26T09:21:09;99695.66;;;26.99;49.86
30021;BME280;16861;52.294;7.760;2023-06-26T09:23:36;99697.78;;;27.04;49.65
30021;BME280;16861;52.294;7.760;2023-06-26T09:26:03;99709.47;;;27.11;48.79
30021;BME280;16861;52.294;7.760;2023-06-26T09:28:31;99709.91;;;27.15;47.56
30021;BME280;16861;52.294;7.760;2023-06-26T09:31:03;99706.97;;;27.10;47.02
30021;BME280;16861;52.294;7.760;2023-06-26T09:33:38;99708.56;;;27.04;46.97
30021;BME280;16861;52.294;7.760;2023-06-26T09:36:06;99710.63;;;26.95;46.57
30021;BME280;16861;52.294;7.760;2023-06-26T09:38:34;99717.97;;;26.86;46.68
30021;BME280;16861;52.294;7.760;2023-06-26T09:41:02;99727.25;;;26.77;45.79
30021;BME280;16861;52.294;7.760;2023-06-26T09:43:29;99725.72;;;26.67;46.26
30021;BME280;16861;52.294;7.760;2023-06-26T09:45:57;99728.19;;;26.62;46.11
30021;BME280;16861;52.294;7.760;2023-06-26T09:48:35;99731.44;;;26.58;46.18
30021;BME280;16861;52.294;7.760;2023-06-26T09:51:15;99739.81;;;26.63;46.78
30021;BME280;16861;52.294;7.760;2023-06-26T09:53:42;99744.88;;;26.73;46.33
30021;BME280;16861;52.294;7.760;2023-06-26T09:56:18;99742.41;;;26.78;46.73
30021;BME280;16861;52.294;7.760;2023-06-26T09:58:44;99732.97;;;26.89;47.08
30021;BME280;16861;52.294;7.760;2023-06-26T10:01:20;99743.03;;;26.95;45.58
30021;BME280;16861;52.294;7.760;2023-06-26T10:03:47;99727.91;;;27.08;46.45
30021;BME280;16861;52.294;7.760;2023-06-26T10:06:46;99727.38;;;27.19;45.24
30021;BME280;16861;52.294;7.760;2023-06-26T10:09:38;99727.66;;;27.31;45.74
30021;BME280;16861;52.294;7.760;2023-06-26T10:12:32;99729.00;;;27.49;44.53
30021;BME280;16861;52.294;7.760;2023-06-26T10:19:13;99746.53;;;27.60;44.29
30021;BME280;16861;52.294;7.760;2023-06-26T10:22:01;99739.13;;;27.68;44.55
30021;BME280;16861;52.294;7.760;2023-06-26T10:29:01;99740.84;;;27.90;44.19
30021;BME280;16861;52.294;7.760;2023-06-26T10:31:57;99738.19;;;28.03;43.35
30021;BME280;16861;52.294;7.760;2023-06-26T10:48:58;99753.34;;;29.14;41.36
30021;BME280;16861;52.294;7.760;2023-06-26T10:51:26;99752.50;;;29.27;41.00
30021;BME280;16861;52.294;7.760;2023-06-26T10:53:57;99752.50;;;29.34;39.19
30021;BME280;16861;52.294;7.760;2023-06-26T10:56:47;99757.47;;;29.37;40.18
30021;BME280;16861;52.294;7.760;2023-06-26T10:59:21;99758.50;;;29.49;39.66
30021;BME280;16861;52.294;7.760;2023-06-26T11:02:07;99763.72;;;29.58;39.58
30021;BME280;16861;52.294;7.760;2023-06-26T11:04:44;99762.38;;;29.81;38.54
30021;BME280;16861;52.294;7.760;2023-06-26T11:10:11;99771.94;;;30.36;40.28
30021;BME280;16861;52.294;7.760;2023-06-26T11:12:39;99760.25;;;30.67;38.63
30021;BME280;16861;52.294;7.760;2023-06-26T11:15:09;99764.47;;;30.89;37.73
30021;BME280;16861;52.294;7.760;2023-06-26T11:17:37;99758.78;;;30.97;36.54
30021;BME280;16861;52.294;7.760;2023-06-26T11:20:08;99770.69;;;30.96;36.93
30021;BME280;16861;52.294;7.760;2023-06-26T11:22:37;99773.00;;;30.99;37.19
30021;BME280;16861;52.294;7.760;2023-06-26T11:25:05;99767.88;;;31.10;36.80
30021;BME280;16861;52.294;7.760;2023-06-26T11:30:06;99791.81;;;31.64;37.61
30021;BME280;16861;52.294;7.760;2023-06-26T11:32:33;99789.25;;;31.88;36.10
30021;BME280;16861;52.294;7.760;2023-06-26T11:35:00;99793.19;;;31.92;34.10
30021;BME280;16861;52.294;7.760;2023-06-26T11:37:26;99788.47;;;31.80;33.87
30021;BME280;16861;52.294;7.760;2023-06-26T11:39:53;99788.03;;;31.65;34.13
30021;BME280;16861;52.294;7.760;2023-06-26T11:42:20;99785.63;;;31.56;34.11
30021;BME280;16861;52.294;7.760;2023-06-26T11:44:47;99787.66;;;31.61;34.39
30021;BME280;16861;52.294;7.760;2023-06-26T11:47:18;99779.19;;;31.69;34.21
30021;BME280;16861;52.294;7.760;2023-06-26T11:49:47;99787.34;;;31.88;35.32
30021;BME280;16861;52.294;7.760;2023-06-26T11:52:15;99796.09;;;32.09;35.19
30021;BME280;16861;52.294;7.760;2023-06-26T11:54:42;99793.72;;;32.31;35.09
30021;BME280;16861;52.294;7.760;2023-06-26T11:57:13;99801.50;;;32.46;33.15
30021;BME280;16861;52.294;7.760;2023-06-26T11:59:41;99812.28;;;32.53;33.52
30021;BME280;16861;52.294;7.760;2023-06-26T12:02:13;99803.69;;;32.37;33.48
30021;BME280;16861;52.294;7.760;2023-06-26T12:04:42;99807.66;;;32.23;33.42
30021;BME280;16861;52.294;7.760;2023-06-26T12:07:10;99806.63;;;32.05;34.32
30021;BME280;16861;52.294;7.760;2023-06-26T12:09:39;99802.19;;;31.92;34.72
30021;BME280;16861;52.294;7.760;2023-06-26T12:12:08;99807.25;;;31.89;34.48
30021;BME280;16861;52.294;7.760;2023-06-26T12:14:35;99807.44;;;31.87;34.37
30021;BME280;16861;52.294;7.760;2023-06-26T12:17:10;99816.53;;;31.81;33.84
30021;BME280;16861;52.294;7.760;2023-06-26T12:19:39;99820.78;;;31.77;33.52
30021;BME280;16861;52.294;7.760;2023-06-26T12:22:07;99820.91;;;31.63;33.56
30021;BME280;16861;52.294;7.760;2023-06-26T12:24:36;99830.31;;;31.42;33.23
30021;BME280;16861;52.294;7.760;2023-06-26T12:27:11;99824.66;;;31.18;33.05
30021;BME280;16861;52.294;7.760;2023-06-26T12:29:40;99824.44;;;30.94;33.85
30021;BME280;16861;52.294;7.760;2023-06-26T12:32:10;99822.94;;;30.73;35.96
30021;BME280;16861;52.294;7.760;2023-06-26T12:34:38;99822.09;;;30.72;35.56
30021;BME280;16861;52.294;7.760;2023-06-26T12:37:09;99831.19;;;30.85;36.23
30021;BME280;16861;52.294;7.760;2023-06-26T12:39:53;99827.88;;;31.08;36.68
30021;BME280;16861;52.294;7.760;2023-06-26T12:42:24;99842.41;;;31.46;35.99
30021;BME280;16861;52.294;7.760;2023-06-26T12:44:52;99841.41;;;31.84;35.16
30021;BME280;16861;52.294;7.760;2023-06-26T12:47:24;99834.22;;;32.09;33.04
30021;BME280;16861;52.294;7.760;2023-06-26T12:49:51;99826.09;;;32.21;33.82
30021;BME280;16861;52.294;7.760;2023-06-26T12:52:19;99839.59;;;32.16;32.53
30021;BME280;16861;52.294;7.760;2023-06-26T12:54:47;99848.16;;;32.01;32.56
30021;BME280;16861;52.294;7.760;2023-06-26T12:57:17;99845.84;;;31.79;32.55
30021;BME280;16861;52.294;7.760;2023-06-26T12:59:44;99849.69;;;31.52;32.51
30021;BME280;16861;52.294;7.760;2023-06-26T13:02:11;99844.25;;;31.27;33.19
30021;BME280;16861;52.294;7.760;2023-06-26T13:04:38;99836.47;;;31.05;32.76
30021;BME280;16861;52.294;7.760;2023-06-26T13:07:08;99851.22;;;30.90;33.17
30021;BME280;16861;52.294;7.760;2023-06-26T13:09:35;99853.84;;;30.78;32.76
30021;BME280;16861;52.294;7.760;2023-06-26T13:12:06;99851.13;;;30.72;33.80
30021;BME280;16861;52.294;7.760;2023-06-26T13:14:33;99856.34;;;30.80;33.79
30021;BME280;16861;52.294;7.760;2023-06-26T13:17:00;99853.69;;;30.99;32.87
30021;BME280;16861;52.294;7.760;2023-06-26T13:19:28;99845.53;;;31.24;32.38
30021;BME280;16861;52.294;7.760;2023-06-26T13:21:55;99852.72;;;31.44;31.41
30021;BME280;16861;52.294;7.760;2023-06-26T13:24:21;99849.22;;;31.55;30.75
30021;BME280;16861;52.294;7.760;2023-06-26T13:26:48;99866.19;;;31.57;30.16
30021;BME280;16861;52.294;7.760;2023-06-26T13:29:15;99851.81;;;31.50;29.86
30021;BME280;16861;52.294;7.760;2023-06-26T13:31:42;99851.34;;;31.35;29.20
30021;BME280;16861;52.294;7.760;2023-06-26T13:34:20;99863.38;;;31.13;29.18
30021;BME280;16861;52.294;7.760;2023-06-26T13:36:46;99856.91;;;31.14;30.18
30021;BME280;16861;52.294;7.760;2023-06-26T13:39:13;99858.69;;;31.27;31.82